Terminal Aerodrome Forecast
Issued by NWS Paducah, KY

Home | Current Version | Previous Version | Text Only | Print | Product List | Glossary Off
Versions: 1 2 3 4 5 6 7 8 9 10 11 12 13 14 15 16 17 18 19

000
FTUS43 KPAH 170500
TAFEVV
TAF
KEVV 170520Z 1706/1806 03003KT P6SM SKC
      TEMPO 1710/1713 5SM BR
     FM171500 00000KT P6SM SCT150
     FM172000 04004KT P6SM SCT070=

USA.gov is the U.S. government's official web portal to all federal, state and local government web resources and services.